Weather, Runways
& NOTAMs

CYYZ - Toronto-Lester B. Pearson International      ATIS Currently Online:  Information M
CYYZ information M weather at 1600Z , Wind 360 at 15 gusting 27,
Visibility 15 , drifting snow , few clouds at 5500
temperature -16 dew point -21 , Altimeter 2990 , Approach ILS
runway 33L , Departure runway 33R ,
Advise ATC that you have information M .
CYOW - Ottawa Macdonald-Cartier International
CYOW 201631Z 32016KT 1/2SM R32/4500FT/D R07/5500VP6000FT/D SN VV008 M19/M22 A2976 RMK SN8 SLP093
Suggested Runway: 32
CYTZ - Billy Bishop Toronto City
CYTZ 201623Z AUTO 33017G25KT 6SM HZ CLR M16/M22 A2992 RMK SLP141
Suggested Runway: 26
CYXU - London International
CYXU 201600Z 33018G24KT 15SM DRSN SCT015 M16/M22 A2997 RMK SC4 SLP173
Suggested Runway: 33
CYHM - John C. Munro Hamilton International
CYHM 201600Z 32016KT 15SM FEW030 FEW050 SCT090 SCT240 M14/M19 A2988 RMK CU1SC1AC1CI1 CI TR SLP139
Suggested Runway: 30
CYKF - Region of Waterloo International
CYKF 201600Z AUTO 33014G24KT 9SM CLR M15/M21 A2990 RMK SLP153
Suggested Runway: 26
CYAM - Sault Ste. Marie
CYAM 201600Z 03009KT 25SM FEW011 M23/M30 A3037 RMK SC1 SC TR SLP311
Suggested Runway: 04
CYTR - Canadian Forces Base Trenton
CYTR 201614Z 34011G18KT 6SM -SN BKN025 M16/M21 A2981 RMK SC7 SLP102
Suggested Runway: 06
CYOO - Toronto/Oshawa Executive
CYOO 201633Z AUTO 32020G25KT 5SM HZ FEW065 M18/M23 A2987 RMK SLP128
Suggested Runway: 30

NOTAMs

181909 CYYZ TORONTO/LESTER B.PEARSON INTL CYYZ RNAV(GNSS) Z RWY 23, RNAV (GNSS) X RWY 23 APCH: LPV AND LNAV/VNAV MINIMA: NOT AUTH LNAV MINIMA: ALL CAT TO READ: 1020 (463) 1 RVR 50 DIST/ALT TABLE, CONSTANT DESCENT ANGLE AND RATE OF DESCENT INFO NOT USEABLE 1811261507 TIL APRX 1902211800 

190061 CYYZ TORONTO/LESTER B.PEARSON INTL CYYZ TWY DP CLSD DUE APN SN REMOVAL OPS 1901191100 TIL 1901202300 

190063 CYYZ TORONTO/LESTER B.PEARSON INTL CYYZ RWY 06R/24L CLSD JAN 21 0530-1100 JAN 22 0530-1100 1530-1900 1901210530 TIL 1901221900 

190037 CYOW OTTAWA/MACDONALD-CARTIER INTL CYOW RWY 04/22 CLSD 1901192105 TIL 1901211000 

190039 CYOW OTTAWA/MACDONALD-CARTIER INTL CYOW RWY 07/25 CLSD 1901201230 TIL 1901211000 

180389 CYHM HAMILTON CYHM AMEND PUB: APN V PERMANENTLY CLSD 

180579 CYKF KITCHENER/WATERLOO CYKF TWY B CLSD BTN TWY A AND TWY BA 1811191438 TIL APRX 1902192100 

190023 CYOO TORONTO/OSHAWA EXECUTIVE AIRPORT CYOO RWY 05/23 CLSD DUE SN 1901192303 TIL APRX 1901202200